Time;durP1;ratioP1;P1;durP2;ratioP2;P2;SDS_P1;SDS_P2;PMS_P1;PMS_P2;Temp;Humidity;BMP_temperature;BMP_pressure;BME280_temperature;BME280_humidity;BME280_pressure;Samples;Min_cycle;Max_cycle;Signal;HPM_P1;HPM_P2
2023/09/15 00:00:53;;;;;;;6.32;2.90;;;;;;;;;;2544423;23;19994;-91
2023/09/15 00:01:54;;;;;;;7.07;2.72;;;;;;;;;;2557110;23;20037;-91
2023/09/15 00:02:56;;;;;;;5.47;2.70;;;;;;;;;;2548973;23;20031;-91
2023/09/15 00:03:57;;;;;;;10.38;2.95;;;;;;;;;;2545617;23;20044;-91
2023/09/15 00:04:57;;;;;;;6.28;3.00;;;;;;;;;;2546080;23;20005;-91
2023/09/15 00:05:58;;;;;;;7.65;2.92;;;;;;;;;;2532086;23;20097;-92
2023/09/15 00:06:59;;;;;;;5.50;3.28;;;;;;;;;;2520169;23;20007;-91
2023/09/15 00:08:04;;;;;;;8.88;2.47;;;;;;;;;;2532713;23;20032;-91
2023/09/15 00:09:06;;;;;;;10.05;3.45;;;;;;;;;;2098524;23;10262825;-93
2023/09/15 00:10:09;;;;;;;5.32;2.78;;;;;;;;;;2532323;23;20006;-93
2023/09/15 00:11:19;;;;;;;9.57;3.13;;;;;;;;;;2532555;23;20010;-92
2023/09/15 00:12:19;;;;;;;3.65;2.92;;;;;;;;;;2531807;23;20089;-93
2023/09/15 00:13:20;;;;;;;12.63;3.58;;;;;;;;;;2535326;23;20002;-92
2023/09/15 00:14:21;;;;;;;5.20;2.70;;;;;;;;;;2534676;23;20052;-93
2023/09/15 00:15:21;;;;;;;9.05;2.60;;;;;;;;;;2532176;23;19998;-94
2023/09/15 00:16:23;;;;;;;6.60;2.80;;;;;;;;;;2528577;23;19998;-93
2023/09/15 00:17:25;;;;;;;3.92;2.53;;;;;;;;;;2532422;23;20384;-92
2023/09/15 00:18:25;;;;;;;4.38;2.80;;;;;;;;;;2532384;23;19998;-93
2023/09/15 00:19:27;;;;;;;4.78;2.65;;;;;;;;;;2544434;23;20005;-92
2023/09/15 00:20:27;;;;;;;7.28;3.22;;;;;;;;;;2544493;23;20333;-92
2023/09/15 00:21:28;;;;;;;13.95;2.90;;;;;;;;;;2532117;23;20076;-92
2023/09/15 00:22:28;;;;;;;7.93;3.08;;;;;;;;;;2532229;23;20391;-92
2023/09/15 00:23:28;;;;;;;7.65;3.08;;;;;;;;;;2547098;23;19997;-92
2023/09/15 00:24:29;;;;;;;10.25;2.90;;;;;;;;;;2544162;23;20088;-93
2023/09/15 00:25:30;;;;;;;8.50;3.47;;;;;;;;;;2532056;23;20026;-92
2023/09/15 00:26:30;;;;;;;6.57;2.63;;;;;;;;;;2544313;23;20404;-93
2023/09/15 00:27:31;;;;;;;7.95;2.38;;;;;;;;;;2556543;23;20051;-92
2023/09/15 00:28:31;;;;;;;6.40;3.03;;;;;;;;;;2544334;23;20451;-92
2023/09/15 00:29:32;;;;;;;8.65;3.20;;;;;;;;;;2532052;23;20005;-91
2023/09/15 00:30:33;;;;;;;7.03;2.85;;;;;;;;;;2532155;23;20007;-92
2023/09/15 00:31:33;;;;;;;8.15;2.80;;;;;;;;;;2544034;23;20017;-92
2023/09/15 00:32:33;;;;;;;8.10;2.92;;;;;;;;;;2544297;23;20044;-93
2023/09/15 00:33:34;;;;;;;10.02;2.97;;;;;;;;;;2532072;23;20020;-92
2023/09/15 00:34:34;;;;;;;6.93;2.88;;;;;;;;;;2531968;23;20165;-92
2023/09/15 00:35:35;;;;;;;8.88;3.13;;;;;;;;;;2531945;23;20472;-92
2023/09/15 00:36:35;;;;;;;6.13;2.92;;;;;;;;;;2506128;23;20240;-93
2023/09/15 00:37:35;;;;;;;6.05;3.00;;;;;;;;;;2531951;23;20464;-92
2023/09/15 00:38:37;;;;;;;6.60;3.00;;;;;;;;;;2523765;23;20013;-92
2023/09/15 00:39:37;;;;;;;6.95;2.83;;;;;;;;;;2546317;23;20052;-93
2023/09/15 00:40:37;;;;;;;7.75;3.35;;;;;;;;;;2544355;23;20041;-93
2023/09/15 00:41:38;;;;;;;6.15;3.22;;;;;;;;;;2531981;23;20041;-92
2023/09/15 00:42:41;;;;;;;9.95;3.50;;;;;;;;;;2531951;23;20021;-92
2023/09/15 00:43:41;;;;;;;7.00;3.00;;;;;;;;;;2532549;23;20005;-92
2023/09/15 00:44:42;;;;;;;9.48;3.05;;;;;;;;;;2532070;23;20073;-93
2023/09/15 00:45:43;;;;;;;8.27;3.05;;;;;;;;;;2531962;23;20503;-93
2023/09/15 00:46:43;;;;;;;7.45;3.20;;;;;;;;;;2532047;23;20341;-93
2023/09/15 00:47:47;;;;;;;8.50;3.35;;;;;;;;;;2545973;23;20004;-92
2023/09/15 00:48:51;;;;;;;9.43;3.20;;;;;;;;;;2544265;23;20085;-93
2023/09/15 00:49:52;;;;;;;9.55;3.35;;;;;;;;;;2544309;23;19997;-92
2023/09/15 00:50:52;;;;;;;5.72;2.78;;;;;;;;;;2531996;23;20094;-93
2023/09/15 00:51:52;;;;;;;8.88;3.38;;;;;;;;;;2545144;23;20009;-93
2023/09/15 00:52:57;;;;;;;8.13;3.30;;;;;;;;;;2556677;23;20009;-93
2023/09/15 00:53:57;;;;;;;5.53;2.78;;;;;;;;;;2544205;23;20462;-93
2023/09/15 00:54:58;;;;;;;6.90;2.95;;;;;;;;;;2532209;23;20013;-93
2023/09/15 00:55:59;;;;;;;8.93;3.08;;;;;;;;;;2544367;23;20025;-93
2023/09/15 00:56:59;;;;;;;7.72;3.45;;;;;;;;;;2544050;23;20064;-93
2023/09/15 00:58:03;;;;;;;6.45;3.30;;;;;;;;;;2532036;23;20016;-92
2023/09/15 00:59:03;;;;;;;5.90;3.35;;;;;;;;;;2544756;23;20010;-93
2023/09/15 01:00:11;;;;;;;6.05;3.10;;;;;;;;;;2544258;23;20343;-92
2023/09/15 01:01:13;;;;;;;6.95;3.47;;;;;;;;;;2546049;23;20014;-92
2023/09/15 01:02:13;;;;;;;8.25;3.45;;;;;;;;;;2556762;23;19997;-94
2023/09/15 01:03:17;;;;;;;8.27;3.25;;;;;;;;;;2556574;23;20473;-93
2023/09/15 01:04:18;;;;;;;10.40;3.90;;;;;;;;;;2544113;23;20005;-93
2023/09/15 01:05:23;;;;;;;10.20;3.90;;;;;;;;;;2532087;23;20009;-92
2023/09/15 01:06:25;;;;;;;6.65;3.40;;;;;;;;;;2544194;23;20001;-93
2023/09/15 01:07:25;;;;;;;9.18;3.53;;;;;;;;;;2544684;23;20013;-93
2023/09/15 01:08:26;;;;;;;9.10;3.50;;;;;;;;;;2544339;23;20434;-93
2023/09/15 01:09:27;;;;;;;7.43;3.65;;;;;;;;;;2544292;23;20001;-92
2023/09/15 01:10:27;;;;;;;7.95;3.90;;;;;;;;;;2556397;23;20465;-92
2023/09/15 01:11:28;;;;;;;8.40;3.90;;;;;;;;;;2559226;23;20021;-92
2023/09/15 01:12:28;;;;;;;7.82;3.92;;;;;;;;;;2556246;23;20406;-93
2023/09/15 01:13:28;;;;;;;9.02;3.53;;;;;;;;;;2556414;23;20443;-93
2023/09/15 01:14:29;;;;;;;9.98;3.67;;;;;;;;;;2544050;23;20359;-93
2023/09/15 01:15:36;;;;;;;8.05;3.83;;;;;;;;;;2544152;23;20001;-92
2023/09/15 01:16:43;;;;;;;8.50;3.50;;;;;;;;;;2544056;23;20002;-93
2023/09/15 01:18:21;;;;;;;8.50;3.45;;;;;;;;;;2532996;23;20455;-93
2023/09/15 01:20:13;;;;;;;7.43;3.78;;;;;;;;;;2527011;23;20396;-93
2023/09/15 01:21:21;;;;;;;8.20;3.50;;;;;;;;;;2505879;23;20007;-93
2023/09/15 01:22:43;;;;;;;9.43;3.78;;;;;;;;;;2508886;23;19999;-93
2023/09/15 01:23:52;;;;;;;8.25;3.80;;;;;;;;;;2528525;23;20010;-92
2023/09/15 01:25:18;;;;;;;8.93;3.40;;;;;;;;;;2533592;23;20016;-91
2023/09/15 01:26:27;;;;;;;7.97;3.50;;;;;;;;;;2548991;23;20092;-91
2023/09/15 01:27:50;;;;;;;8.90;3.60;;;;;;;;;;2544342;23;20051;-92
2023/09/15 01:29:05;;;;;;;7.32;3.22;;;;;;;;;;2536603;23;19997;-91
2023/09/15 01:30:05;;;;;;;8.00;3.35;;;;;;;;;;2534804;23;20017;-92
2023/09/15 01:31:07;;;;;;;6.90;3.60;;;;;;;;;;2531973;23;20128;-91
2023/09/15 01:32:12;;;;;;;9.57;3.55;;;;;;;;;;2531838;23;20088;-91
2023/09/15 01:33:13;;;;;;;9.77;4.10;;;;;;;;;;2532564;23;20484;-92
2023/09/15 01:34:16;;;;;;;11.38;4.20;;;;;;;;;;2531859;23;19998;-92
2023/09/15 01:35:17;;;;;;;10.52;4.50;;;;;;;;;;2547620;23;20048;-91
2023/09/15 01:36:17;;;;;;;13.65;3.80;;;;;;;;;;2556241;23;20148;-92
2023/09/15 01:37:19;;;;;;;12.68;3.83;;;;;;;;;;2544005;23;19998;-91
2023/09/15 01:38:19;;;;;;;8.32;3.45;;;;;;;;;;2544275;23;19997;-92
2023/09/15 01:39:20;;;;;;;8.27;3.70;;;;;;;;;;2556467;23;20001;-92
2023/09/15 01:40:20;;;;;;;7.40;3.83;;;;;;;;;;2556497;23;19993;-91
2023/09/15 01:41:21;;;;;;;9.23;3.45;;;;;;;;;;2556261;23;20015;-93
2023/09/15 01:42:21;;;;;;;9.23;3.72;;;;;;;;;;2543996;23;19997;-92
2023/09/15 01:43:21;;;;;;;11.20;3.55;;;;;;;;;;2532087;23;20033;-92
2023/09/15 01:44:22;;;;;;;8.82;3.47;;;;;;;;;;2544133;23;20020;-93
2023/09/15 01:45:22;;;;;;;11.57;4.22;;;;;;;;;;2544132;23;20005;-92
2023/09/15 01:46:24;;;;;;;11.07;3.85;;;;;;;;;;2547419;23;20373;-92
2023/09/15 01:47:25;;;;;;;8.10;3.90;;;;;;;;;;2544476;23;20029;-93
2023/09/15 01:48:26;;;;;;;12.00;3.53;;;;;;;;;;2532644;23;20025;-92
2023/09/15 01:49:28;;;;;;;8.35;3.28;;;;;;;;;;2544958;23;20075;-92
2023/09/15 01:50:30;;;;;;;8.63;3.90;;;;;;;;;;2559667;23;20028;-92
2023/09/15 01:51:31;;;;;;;13.88;3.97;;;;;;;;;;2557035;23;20033;-92
2023/09/15 01:52:32;;;;;;;8.35;3.85;;;;;;;;;;2557112;23;20005;-92
2023/09/15 01:53:35;;;;;;;9.95;4.18;;;;;;;;;;2544798;23;20009;-93
2023/09/15 01:54:35;;;;;;;6.82;3.80;;;;;;;;;;2533115;23;20220;-91
2023/09/15 01:55:37;;;;;;;6.60;3.40;;;;;;;;;;2547016;23;20506;-91
2023/09/15 01:56:38;;;;;;;9.27;3.85;;;;;;;;;;2557240;23;20442;-93
2023/09/15 01:57:38;;;;;;;11.60;4.78;;;;;;;;;;2559795;23;20052;-94
2023/09/15 01:58:38;;;;;;;12.30;4.28;;;;;;;;;;2544771;23;20005;-92
2023/09/15 01:59:39;;;;;;;11.10;4.28;;;;;;;;;;2532660;23;20009;-93
2023/09/15 02:00:39;;;;;;;8.75;3.78;;;;;;;;;;2532821;23;20016;-92
2023/09/15 02:01:40;;;;;;;12.52;4.05;;;;;;;;;;2546739;23;20076;-92
2023/09/15 02:02:40;;;;;;;10.80;3.90;;;;;;;;;;2557068;23;20106;-93
2023/09/15 02:03:41;;;;;;;10.75;3.92;;;;;;;;;;2558945;23;20064;-92
2023/09/15 02:04:41;;;;;;;9.73;4.00;;;;;;;;;;2544609;23;20033;-93
2023/09/15 02:05:42;;;;;;;6.82;3.83;;;;;;;;;;2532637;23;20013;-93
2023/09/15 02:06:42;;;;;;;8.88;3.42;;;;;;;;;;2532465;23;20010;-91
2023/09/15 02:07:42;;;;;;;9.05;3.80;;;;;;;;;;2544808;23;20088;-92
2023/09/15 02:08:44;;;;;;;7.97;3.50;;;;;;;;;;2544921;23;20125;-93
2023/09/15 02:09:45;;;;;;;8.48;3.75;;;;;;;;;;2532874;23;20010;-93
2023/09/15 02:10:45;;;;;;;8.77;3.88;;;;;;;;;;2546386;23;20006;-93
2023/09/15 02:11:46;;;;;;;11.75;3.70;;;;;;;;;;2547026;23;20005;-93
2023/09/15 02:12:46;;;;;;;9.95;3.55;;;;;;;;;;2544910;23;20457;-92
2023/09/15 02:13:46;;;;;;;10.00;3.80;;;;;;;;;;2532727;23;20002;-94
2023/09/15 02:14:47;;;;;;;9.25;3.63;;;;;;;;;;2532500;23;20392;-93
2023/09/15 02:15:47;;;;;;;7.50;3.45;;;;;;;;;;2532633;23;20323;-93
2023/09/15 02:16:47;;;;;;;13.93;4.20;;;;;;;;;;2546283;23;20001;-93
2023/09/15 02:17:49;;;;;;;11.82;3.75;;;;;;;;;;2544856;23;20012;-93
2023/09/15 02:18:49;;;;;;;9.95;4.05;;;;;;;;;;2532987;23;20041;-93
2023/09/15 02:19:50;;;;;;;7.93;3.75;;;;;;;;;;2546076;23;20001;-93
2023/09/15 02:20:54;;;;;;;9.73;3.75;;;;;;;;;;2544742;23;20005;-92
2023/09/15 02:21:55;;;;;;;10.60;3.92;;;;;;;;;;2533583;23;20013;-92
2023/09/15 02:22:57;;;;;;;12.65;4.03;;;;;;;;;;2532779;23;20113;-93
2023/09/15 02:23:57;;;;;;;14.73;3.90;;;;;;;;;;2544949;23;20041;-93
2023/09/15 02:24:57;;;;;;;10.65;3.90;;;;;;;;;;2557216;23;20056;-93
2023/09/15 02:26:02;;;;;;;9.68;3.65;;;;;;;;;;2557197;23;20005;-92
2023/09/15 02:27:03;;;;;;;11.25;3.80;;;;;;;;;;2549143;23;20016;-92
2023/09/15 02:28:04;;;;;;;8.85;3.42;;;;;;;;;;2544131;23;20014;-92
2023/09/15 02:29:04;;;;;;;8.75;3.83;;;;;;;;;;2544527;23;20005;-92
2023/09/15 02:30:06;;;;;;;12.98;3.33;;;;;;;;;;2557067;23;20012;-92
2023/09/15 02:31:07;;;;;;;8.57;3.70;;;;;;;;;;2546908;23;20021;-93
2023/09/15 02:32:07;;;;;;;5.53;3.55;;;;;;;;;;2545339;23;20384;-92
2023/09/15 02:33:08;;;;;;;7.13;3.65;;;;;;;;;;2549375;23;20010;-93
2023/09/15 02:34:08;;;;;;;9.45;4.05;;;;;;;;;;2549583;23;19993;-92
2023/09/15 02:35:08;;;;;;;10.60;3.55;;;;;;;;;;2544685;23;20000;-93
2023/09/15 02:36:09;;;;;;;7.22;3.50;;;;;;;;;;2532551;23;20004;-93
2023/09/15 02:37:09;;;;;;;10.93;3.95;;;;;;;;;;2544424;23;20440;-93
2023/09/15 02:38:10;;;;;;;7.60;3.78;;;;;;;;;;2557004;23;20344;-93
2023/09/15 02:39:10;;;;;;;9.63;3.67;;;;;;;;;;2544725;23;20084;-92
2023/09/15 02:40:14;;;;;;;10.35;4.00;;;;;;;;;;2532582;23;20022;-93
2023/09/15 02:41:15;;;;;;;7.93;3.67;;;;;;;;;;2533420;23;20001;-93
2023/09/15 02:42:15;;;;;;;7.30;3.92;;;;;;;;;;2544752;23;20469;-90
2023/09/15 02:43:15;;;;;;;10.93;3.92;;;;;;;;;;2548276;23;20068;-92
2023/09/15 02:44:16;;;;;;;8.77;3.90;;;;;;;;;;2544723;23;20088;-93
2023/09/15 02:45:17;;;;;;;11.90;4.03;;;;;;;;;;2544719;23;20005;-92
2023/09/15 02:46:17;;;;;;;10.05;4.57;;;;;;;;;;2544674;23;20435;-93
2023/09/15 02:47:18;;;;;;;9.43;3.40;;;;;;;;;;2532667;23;20030;-92
2023/09/15 02:48:19;;;;;;;9.13;4.18;;;;;;;;;;2548108;23;20450;-92
2023/09/15 02:49:19;;;;;;;8.88;3.83;;;;;;;;;;2544992;23;19994;-92
2023/09/15 02:50:19;;;;;;;9.02;4.15;;;;;;;;;;2532524;23;20002;-93
2023/09/15 02:51:20;;;;;;;9.43;4.05;;;;;;;;;;2532602;23;20002;-92
2023/09/15 02:52:20;;;;;;;8.77;4.00;;;;;;;;;;2532552;23;20013;-91
2023/09/15 02:53:20;;;;;;;10.25;4.00;;;;;;;;;;2548018;23;20564;-93
2023/09/15 02:54:21;;;;;;;10.32;3.92;;;;;;;;;;2548846;23;19998;-92
2023/09/15 02:55:22;;;;;;;5.88;3.42;;;;;;;;;;2544589;23;20001;-91
2023/09/15 02:56:23;;;;;;;11.35;4.03;;;;;;;;;;2532726;23;20005;-94
2023/09/15 02:57:24;;;;;;;9.13;3.85;;;;;;;;;;2545045;23;20005;-93
2023/09/15 02:58:24;;;;;;;10.55;3.70;;;;;;;;;;2559729;23;19993;-93
2023/09/15 02:59:26;;;;;;;9.23;3.88;;;;;;;;;;2557072;23;20402;-93
2023/09/15 03:00:26;;;;;;;8.07;3.60;;;;;;;;;;2544781;23;20083;-93
2023/09/15 03:01:26;;;;;;;8.82;3.72;;;;;;;;;;2532331;23;21499;-93
2023/09/15 03:02:27;;;;;;;6.65;3.35;;;;;;;;;;2531327;23;20024;-93
2023/09/15 03:03:29;;;;;;;7.05;3.95;;;;;;;;;;2544510;23;20111;-92
2023/09/15 03:04:29;;;;;;;9.93;3.78;;;;;;;;;;2556969;23;20065;-94
2023/09/15 03:05:30;;;;;;;10.90;3.22;;;;;;;;;;2557020;23;20091;-93
2023/09/15 03:06:30;;;;;;;9.02;3.75;;;;;;;;;;2544551;23;20608;-92
2023/09/15 03:07:31;;;;;;;9.73;3.92;;;;;;;;;;2532402;23;20002;-94
2023/09/15 03:08:33;;;;;;;12.25;3.95;;;;;;;;;;2545228;23;20009;-93
2023/09/15 03:09:34;;;;;;;9.63;3.97;;;;;;;;;;2564007;23;19997;-92
2023/09/15 03:10:35;;;;;;;8.13;3.55;;;;;;;;;;2561605;23;20005;-91
2023/09/15 03:11:36;;;;;;;12.77;4.65;;;;;;;;;;2557601;23;19989;-91
2023/09/15 03:12:39;;;;;;;11.15;4.40;;;;;;;;;;2542737;23;20046;-92
2023/09/15 03:13:42;;;;;;;6.57;3.67;;;;;;;;;;2552705;23;20000;-92
2023/09/15 03:14:43;;;;;;;13.45;5.07;;;;;;;;;;2554934;23;20005;-92
2023/09/15 03:15:43;;;;;;;7.22;4.05;;;;;;;;;;2544824;23;20016;-92
2023/09/15 03:16:44;;;;;;;13.65;4.20;;;;;;;;;;2532472;23;20006;-92
2023/09/15 03:17:44;;;;;;;6.88;3.25;;;;;;;;;;2532413;23;20058;-92
2023/09/15 03:18:46;;;;;;;8.57;3.78;;;;;;;;;;2532299;23;20020;-92
2023/09/15 03:19:46;;;;;;;13.70;3.65;;;;;;;;;;2544924;23;20438;-92
2023/09/15 03:20:47;;;;;;;8.90;4.32;;;;;;;;;;2556943;23;20036;-92
2023/09/15 03:21:47;;;;;;;10.65;4.20;;;;;;;;;;2557004;23;20559;-92
2023/09/15 03:22:51;;;;;;;7.95;4.10;;;;;;;;;;2558028;23;20061;-92
2023/09/15 03:23:51;;;;;;;9.45;4.18;;;;;;;;;;2544412;23;20379;-92
2023/09/15 03:24:52;;;;;;;10.10;4.70;;;;;;;;;;2532611;23;20014;-92
2023/09/15 03:25:59;;;;;;;6.88;3.90;;;;;;;;;;2343170;23;10287465;-92
2023/09/15 03:27:00;;;;;;;10.10;4.55;;;;;;;;;;2544575;23;20219;-92
2023/09/15 03:28:00;;;;;;;8.55;4.43;;;;;;;;;;2544546;23;20021;-92
2023/09/15 03:29:01;;;;;;;13.43;5.72;;;;;;;;;;2555628;23;20016;-92
2023/09/15 03:30:04;;;;;;;11.27;5.80;;;;;;;;;;2557314;23;20390;-93
2023/09/15 03:31:05;;;;;;;10.80;5.10;;;;;;;;;;2558048;23;20012;-92
2023/09/15 03:32:05;;;;;;;8.13;4.22;;;;;;;;;;2544868;23;20599;-93
2023/09/15 03:33:05;;;;;;;9.40;5.13;;;;;;;;;;2544492;23;20105;-92
2023/09/15 03:34:06;;;;;;;11.85;6.38;;;;;;;;;;2557024;23;20450;-92
2023/09/15 03:35:07;;;;;;;11.00;4.60;;;;;;;;;;2532668;23;20081;-92
2023/09/15 03:36:09;;;;;;;12.70;4.63;;;;;;;;;;2532499;23;20006;-92
2023/09/15 03:37:09;;;;;;;13.98;4.68;;;;;;;;;;2536473;23;19998;-93
2023/09/15 03:38:09;;;;;;;8.00;4.05;;;;;;;;;;2532692;23;20005;-92
2023/09/15 03:39:10;;;;;;;9.18;4.57;;;;;;;;;;2544535;23;19993;-92
2023/09/15 03:40:11;;;;;;;11.02;5.22;;;;;;;;;;2543674;23;20001;-91
2023/09/15 03:41:11;;;;;;;13.65;5.05;;;;;;;;;;2520423;23;19998;-91
2023/09/15 03:42:13;;;;;;;8.88;4.35;;;;;;;;;;2532296;23;20281;-91
2023/09/15 03:43:14;;;;;;;6.72;4.05;;;;;;;;;;2537206;23;20028;-91
2023/09/15 03:44:14;;;;;;;10.32;4.47;;;;;;;;;;2532034;23;20407;-91
2023/09/15 03:45:15;;;;;;;13.68;4.97;;;;;;;;;;2532102;23;20040;-92
2023/09/15 03:46:15;;;;;;;12.73;4.80;;;;;;;;;;2532352;23;20065;-92
2023/09/15 03:47:16;;;;;;;9.38;4.55;;;;;;;;;;2544368;23;20019;-92
2023/09/15 03:48:16;;;;;;;8.80;4.65;;;;;;;;;;2544707;23;20021;-92
2023/09/15 03:49:17;;;;;;;12.50;3.92;;;;;;;;;;2532270;23;20008;-92
2023/09/15 03:50:21;;;;;;;15.70;4.20;;;;;;;;;;2547765;23;20065;-93
2023/09/15 03:51:22;;;;;;;10.52;4.25;;;;;;;;;;2544521;23;20000;-92
2023/09/15 03:52:22;;;;;;;7.90;4.40;;;;;;;;;;2544553;23;20052;-93
2023/09/15 03:53:23;;;;;;;8.82;4.25;;;;;;;;;;2549260;23;20064;-92
2023/09/15 03:54:25;;;;;;;11.13;4.78;;;;;;;;;;2545170;23;19994;-92
2023/09/15 03:55:26;;;;;;;8.20;4.45;;;;;;;;;;2569256;23;20040;-93
2023/09/15 03:56:27;;;;;;;7.72;4.13;;;;;;;;;;2549765;23;20013;-90
2023/09/15 03:57:28;;;;;;;10.38;4.50;;;;;;;;;;2547038;23;20014;-90
2023/09/15 03:58:28;;;;;;;7.93;4.45;;;;;;;;;;2560157;23;20008;-91
2023/09/15 03:59:28;;;;;;;10.38;4.15;;;;;;;;;;2559604;23;20005;-90
2023/09/15 04:00:29;;;;;;;9.32;4.88;;;;;;;;;;2543810;23;20005;-91
2023/09/15 04:01:30;;;;;;;10.98;4.57;;;;;;;;;;2531459;23;20097;-90
2023/09/15 04:02:30;;;;;;;8.98;4.38;;;;;;;;;;2546604;23;20399;-90
2023/09/15 04:03:31;;;;;;;9.48;5.50;;;;;;;;;;2556169;23;20088;-91
2023/09/15 04:04:31;;;;;;;8.70;4.35;;;;;;;;;;2558440;23;20072;-90
2023/09/15 04:05:32;;;;;;;11.00;4.97;;;;;;;;;;2555602;23;20032;-90
2023/09/15 04:06:33;;;;;;;12.75;5.22;;;;;;;;;;2558272;23;20084;-91
2023/09/15 04:07:34;;;;;;;14.10;4.93;;;;;;;;;;2543706;23;20152;-91
2023/09/15 04:08:34;;;;;;;9.18;4.95;;;;;;;;;;2546292;23;20008;-90
2023/09/15 04:09:35;;;;;;;9.43;5.40;;;;;;;;;;2558965;23;20001;-89
2023/09/15 04:10:35;;;;;;;7.85;4.78;;;;;;;;;;2543437;23;20014;-91
2023/09/15 04:11:36;;;;;;;8.93;4.15;;;;;;;;;;2543741;23;20447;-91
2023/09/15 04:12:36;;;;;;;7.97;4.82;;;;;;;;;;2531193;23;20077;-91
2023/09/15 04:13:36;;;;;;;11.88;4.90;;;;;;;;;;2543580;23;20017;-91
2023/09/15 04:14:37;;;;;;;11.82;4.65;;;;;;;;;;2555877;23;20345;-92
2023/09/15 04:15:37;;;;;;;8.98;4.03;;;;;;;;;;2543864;23;20006;-91
2023/09/15 04:16:37;;;;;;;8.25;3.85;;;;;;;;;;2531766;23;20388;-91
2023/09/15 04:17:38;;;;;;;9.32;3.95;;;;;;;;;;2543541;23;20013;-91
2023/09/15 04:18:38;;;;;;;7.47;4.45;;;;;;;;;;2543693;23;20071;-91
2023/09/15 04:19:39;;;;;;;7.65;4.38;;;;;;;;;;2531495;23;20013;-92
2023/09/15 04:20:39;;;;;;;9.38;4.63;;;;;;;;;;2543449;23;20486;-91
2023/09/15 04:21:39;;;;;;;8.73;4.22;;;;;;;;;;2543516;23;20029;-91
2023/09/15 04:22:41;;;;;;;8.60;4.70;;;;;;;;;;2531264;23;20640;-91
2023/09/15 04:23:41;;;;;;;13.13;5.00;;;;;;;;;;2545599;23;20032;-91
2023/09/15 04:24:41;;;;;;;11.10;5.13;;;;;;;;;;2543713;23;20056;-91
2023/09/15 04:25:43;;;;;;;10.20;4.90;;;;;;;;;;2543653;23;20119;-91
2023/09/15 04:26:43;;;;;;;10.85;4.35;;;;;;;;;;2543534;23;20084;-91
2023/09/15 04:27:44;;;;;;;9.73;5.13;;;;;;;;;;2532119;23;20009;-91
2023/09/15 04:28:44;;;;;;;13.10;5.00;;;;;;;;;;2543993;23;20044;-90
2023/09/15 04:29:55;;;;;;;11.85;5.70;;;;;;;;;;2556004;23;20096;-90
2023/09/15 04:30:55;;;;;;;7.43;4.40;;;;;;;;;;2543800;23;20009;-90
2023/09/15 04:31:56;;;;;;;10.20;5.45;;;;;;;;;;2543730;23;20017;-90
2023/09/15 04:32:58;;;;;;;11.90;5.80;;;;;;;;;;2555759;23;20036;-90
2023/09/15 04:33:59;;;;;;;13.00;5.22;;;;;;;;;;2555704;23;20009;-91
2023/09/15 04:34:59;;;;;;;12.88;5.50;;;;;;;;;;2531398;23;20060;-90
2023/09/15 04:36:00;;;;;;;12.88;4.78;;;;;;;;;;2531406;23;20097;-91
2023/09/15 04:37:00;;;;;;;11.68;5.43;;;;;;;;;;2531759;23;20009;-91
2023/09/15 04:38:02;;;;;;;14.65;5.30;;;;;;;;;;2543597;23;20064;-90
2023/09/15 04:39:04;;;;;;;6.70;4.55;;;;;;;;;;2543528;23;20503;-91
2023/09/15 04:40:06;;;;;;;10.73;4.38;;;;;;;;;;2543921;23;20005;-90
2023/09/15 04:41:07;;;;;;;15.55;5.93;;;;;;;;;;2543507;23;20013;-91
2023/09/15 04:42:09;;;;;;;13.70;5.55;;;;;;;;;;2543520;23;20427;-91
2023/09/15 04:43:09;;;;;;;8.60;4.88;;;;;;;;;;2542802;23;20514;-91
2023/09/15 04:44:10;;;;;;;16.55;5.88;;;;;;;;;;2519168;23;20034;-91
2023/09/15 04:45:11;;;;;;;12.32;5.70;;;;;;;;;;2531817;23;20516;-91
2023/09/15 04:46:11;;;;;;;11.88;5.10;;;;;;;;;;2558897;23;19989;-91
2023/09/15 04:47:12;;;;;;;9.80;5.28;;;;;;;;;;2549004;23;19997;-91
2023/09/15 04:48:13;;;;;;;9.88;5.15;;;;;;;;;;2560335;23;20020;-91
2023/09/15 04:49:13;;;;;;;9.20;5.15;;;;;;;;;;2555546;23;19997;-91
2023/09/15 04:50:23;;;;;;;10.05;5.00;;;;;;;;;;2543207;23;20020;-91
2023/09/15 04:51:24;;;;;;;8.13;4.53;;;;;;;;;;2103346;23;10232688;-90
2023/09/15 04:52:24;;;;;;;9.82;5.13;;;;;;;;;;2531243;23;20002;-91
2023/09/15 04:53:24;;;;;;;12.23;5.68;;;;;;;;;;2543540;23;20463;-91
2023/09/15 04:54:26;;;;;;;11.15;5.65;;;;;;;;;;2543686;23;19993;-91
2023/09/15 04:55:27;;;;;;;10.95;4.55;;;;;;;;;;2543567;23;20005;-91
2023/09/15 04:56:27;;;;;;;12.93;5.90;;;;;;;;;;2547842;23;20009;-92
2023/09/15 04:57:27;;;;;;;11.05;5.07;;;;;;;;;;2571005;23;20013;-91
2023/09/15 04:58:28;;;;;;;9.77;4.75;;;;;;;;;;2570759;23;20013;-92
2023/09/15 04:59:28;;;;;;;17.45;6.20;;;;;;;;;;2568397;23;20021;-90
2023/09/15 05:00:34;;;;;;;10.02;5.28;;;;;;;;;;2559776;23;20360;-91
2023/09/15 05:01:35;;;;;;;11.77;6.00;;;;;;;;;;2532667;23;20010;-91
2023/09/15 05:02:35;;;;;;;14.93;6.13;;;;;;;;;;2531802;23;20329;-91
2023/09/15 05:03:37;;;;;;;8.05;5.40;;;;;;;;;;2531557;23;20337;-91
2023/09/15 05:04:37;;;;;;;11.10;5.70;;;;;;;;;;2543420;23;20356;-90
2023/09/15 05:05:37;;;;;;;10.93;6.50;;;;;;;;;;2545874;23;20001;-91
2023/09/15 05:06:38;;;;;;;9.63;5.32;;;;;;;;;;2558730;23;20386;-91
2023/09/15 05:07:38;;;;;;;10.93;5.32;;;;;;;;;;2543450;23;20021;-91
2023/09/15 05:08:39;;;;;;;11.85;5.35;;;;;;;;;;2096052;23;10306875;-92
2023/09/15 05:09:39;;;;;;;10.20;5.03;;;;;;;;;;2545351;23;20001;-91
2023/09/15 05:10:39;;;;;;;10.18;5.10;;;;;;;;;;2543573;23;20005;-91
2023/09/15 05:11:40;;;;;;;12.13;5.13;;;;;;;;;;2544164;23;20013;-91
2023/09/15 05:12:40;;;;;;;15.00;5.70;;;;;;;;;;2557866;23;20013;-91
2023/09/15 05:13:41;;;;;;;10.70;5.18;;;;;;;;;;2543420;23;20033;-91
2023/09/15 05:14:41;;;;;;;13.32;6.60;;;;;;;;;;2531857;23;20085;-91
2023/09/15 05:15:42;;;;;;;11.30;5.80;;;;;;;;;;2543480;23;20351;-91
2023/09/15 05:16:42;;;;;;;10.45;5.57;;;;;;;;;;2531314;23;20010;-91
2023/09/15 05:17:44;;;;;;;12.07;5.85;;;;;;;;;;2543577;23;20436;-91
2023/09/15 05:18:45;;;;;;;13.45;5.90;;;;;;;;;;2543562;23;20016;-92
2023/09/15 05:19:47;;;;;;;11.23;6.28;;;;;;;;;;2545346;23;20025;-91
2023/09/15 05:20:47;;;;;;;11.77;5.57;;;;;;;;;;2558334;23;20009;-91
2023/09/15 05:21:47;;;;;;;9.57;5.30;;;;;;;;;;2556635;23;20005;-91
2023/09/15 05:22:48;;;;;;;9.00;4.90;;;;;;;;;;2544587;23;20116;-91
2023/09/15 05:23:48;;;;;;;11.00;5.53;;;;;;;;;;2545925;23;20069;-90
2023/09/15 05:24:49;;;;;;;13.82;5.82;;;;;;;;;;2559111;23;20380;-91
2023/09/15 05:25:50;;;;;;;10.75;5.50;;;;;;;;;;2544813;23;20185;-91
2023/09/15 05:26:51;;;;;;;16.88;6.30;;;;;;;;;;2532486;23;20020;-91
2023/09/15 05:27:51;;;;;;;15.10;6.10;;;;;;;;;;2544630;23;20033;-91
2023/09/15 05:28:52;;;;;;;15.27;6.15;;;;;;;;;;2557881;23;20011;-90
2023/09/15 05:29:52;;;;;;;19.52;6.47;;;;;;;;;;2544492;23;20029;-90
2023/09/15 05:30:57;;;;;;;15.15;6.57;;;;;;;;;;2545639;23;20001;-91
2023/09/15 05:31:57;;;;;;;16.80;7.35;;;;;;;;;;2544439;23;20036;-92
2023/09/15 05:32:58;;;;;;;15.70;7.53;;;;;;;;;;2532267;23;20014;-91
2023/09/15 05:33:58;;;;;;;13.13;7.20;;;;;;;;;;2531866;23;20061;-91
2023/09/15 05:34:59;;;;;;;15.45;6.40;;;;;;;;;;2532293;23;20017;-91
2023/09/15 05:35:59;;;;;;;18.55;7.80;;;;;;;;;;2545080;23;20009;-90
2023/09/15 05:37:00;;;;;;;17.05;6.70;;;;;;;;;;2558159;23;20450;-91
2023/09/15 05:38:00;;;;;;;21.48;7.60;;;;;;;;;;2556623;23;20326;-92
2023/09/15 05:39:00;;;;;;;15.52;6.22;;;;;;;;;;2556889;23;20005;-91
2023/09/15 05:40:01;;;;;;;12.13;6.03;;;;;;;;;;2544918;23;20002;-90
2023/09/15 05:41:03;;;;;;;15.90;6.07;;;;;;;;;;2544464;23;20049;-91
2023/09/15 05:42:04;;;;;;;13.52;5.70;;;;;;;;;;2545209;23;20081;-91
2023/09/15 05:43:04;;;;;;;13.25;6.10;;;;;;;;;;2556940;23;20446;-91
2023/09/15 05:44:05;;;;;;;18.05;6.05;;;;;;;;;;2544385;23;20009;-92
2023/09/15 05:45:06;;;;;;;15.70;6.10;;;;;;;;;;2544438;23;20013;-91
2023/09/15 05:46:07;;;;;;;11.30;5.32;;;;;;;;;;2544302;23;20074;-92
2023/09/15 05:47:07;;;;;;;14.07;6.22;;;;;;;;;;2532231;23;20033;-91
2023/09/15 05:48:12;;;;;;;14.48;5.68;;;;;;;;;;2520052;23;20006;-91
2023/09/15 05:49:12;;;;;;;15.90;7.03;;;;;;;;;;2544046;23;20000;-91
2023/09/15 05:50:13;;;;;;;16.20;5.78;;;;;;;;;;2548344;23;19993;-91
2023/09/15 05:51:13;;;;;;;13.43;6.43;;;;;;;;;;2550078;23;19996;-91
2023/09/15 05:52:13;;;;;;;13.82;5.95;;;;;;;;;;2544301;23;20369;-91
2023/09/15 05:53:14;;;;;;;18.27;6.05;;;;;;;;;;2547823;23;19998;-91
2023/09/15 05:54:14;;;;;;;13.52;6.03;;;;;;;;;;2544401;23;20435;-91
2023/09/15 05:55:15;;;;;;;14.63;5.93;;;;;;;;;;2548049;23;20005;-91
2023/09/15 05:56:17;;;;;;;13.10;5.93;;;;;;;;;;2544221;23;20060;-91
2023/09/15 05:57:17;;;;;;;16.52;6.00;;;;;;;;;;2532452;23;20363;-91
2023/09/15 05:58:18;;;;;;;14.45;5.90;;;;;;;;;;2532480;23;20001;-91
2023/09/15 05:59:19;;;;;;;13.07;5.60;;;;;;;;;;2532353;23;20372;-90
2023/09/15 06:00:20;;;;;;;15.68;6.00;;;;;;;;;;2544592;23;20001;-91
2023/09/15 06:01:20;;;;;;;13.43;6.00;;;;;;;;;;2544853;23;19994;-91
2023/09/15 06:02:21;;;;;;;16.52;5.78;;;;;;;;;;2544519;23;20478;-91
2023/09/15 06:03:22;;;;;;;18.05;5.47;;;;;;;;;;2544061;23;20044;-91
2023/09/15 06:04:23;;;;;;;16.35;5.35;;;;;;;;;;2559793;23;20000;-92
2023/09/15 06:05:25;;;;;;;17.10;5.63;;;;;;;;;;2544154;23;20020;-91
2023/09/15 06:06:25;;;;;;;17.70;6.15;;;;;;;;;;2544514;23;20001;-92